Time;durP1;ratioP1;P1;durP2;ratioP2;P2;SDS_P1;SDS_P2;PMS_P1;PMS_P2;Temp;Humidity;BMP_temperature;BMP_pressure;BME280_temperature;BME280_humidity;BME280_pressure;Samples;Min_cycle;Max_cycle;Signal;HPM_P1;HPM_P2
2024/01/07 00:02:05;;;;;;;7.73;3.83;;;;;;;8.74;100.00;63861.25;5070967;28;20682;-54
2024/01/07 00:04:34;;;;;;;10.83;4.27;;;;;;;8.71;100.00;63850.97;5070713;28;20185;-57
2024/01/07 00:07:00;;;;;;;5.33;3.07;;;;;;;8.80;100.00;63860.28;5070663;28;20247;-53
2024/01/07 00:09:25;;;;;;;6.57;3.70;;;;;;;8.86;100.00;63869.88;5070732;28;20206;-53
2024/01/07 00:11:51;;;;;;;7.57;4.03;;;;;;;8.90;100.00;63874.25;5070543;28;20261;-55
2024/01/07 00:14:17;;;;;;;4.67;3.67;;;;;;;8.89;100.00;63872.59;5052616;28;20280;-58
2024/01/07 00:16:43;;;;;;;7.53;3.33;;;;;;;8.99;100.00;63881.03;5052851;28;20275;-57
2024/01/07 00:19:08;;;;;;;4.10;3.50;;;;;;;9.00;100.00;63882.13;5070671;28;20216;-56
2024/01/07 00:21:34;;;;;;;3.73;2.90;;;;;;;8.99;100.00;63883.53;5070686;28;20177;-56
2024/01/07 00:24:00;;;;;;;6.03;3.47;;;;;;;9.06;100.00;63886.72;5052532;28;20185;-55
2024/01/07 00:26:25;;;;;;;8.10;3.47;;;;;;;9.05;100.00;63885.09;5052358;28;20199;-55
2024/01/07 00:28:51;;;;;;;5.43;3.37;;;;;;;9.03;100.00;63887.94;5070422;28;20687;-59
2024/01/07 00:31:16;;;;;;;7.83;4.30;;;;;;;9.02;100.00;63884.31;5070419;28;20230;-56
2024/01/07 00:33:42;;;;;;;6.00;4.37;;;;;;;9.14;100.00;63899.94;5052303;28;20229;-55
2024/01/07 00:36:08;;;;;;;5.03;3.33;;;;;;;9.15;100.00;63898.53;5070375;28;20563;-56
2024/01/07 00:38:33;;;;;;;5.77;3.13;;;;;;;9.15;100.00;63899.06;5052528;28;20648;-55
2024/01/07 00:40:59;;;;;;;6.43;3.03;;;;;;;9.34;100.00;63921.78;5052122;28;20732;-56
2024/01/07 00:43:25;;;;;;;6.93;4.23;;;;;;;9.33;100.00;63918.72;5070366;28;20244;-55
2024/01/07 00:45:50;;;;;;;5.03;3.50;;;;;;;9.41;100.00;63926.94;5070086;28;20200;-55
2024/01/07 00:48:16;;;;;;;5.60;3.43;;;;;;;9.40;100.00;63925.84;5070290;28;20240;-55
2024/01/07 00:50:43;;;;;;;6.47;3.17;;;;;;;9.49;100.00;63932.63;5052239;28;20230;-55
2024/01/07 00:53:08;;;;;;;5.67;3.90;;;;;;;9.09;100.00;63894.47;5069927;28;20212;-55
2024/01/07 00:55:35;;;;;;;10.13;4.93;;;;;;;9.00;100.00;63885.19;5069953;28;20185;-55
2024/01/07 00:58:01;;;;;;;12.30;7.67;;;;;;;8.56;100.00;63834.06;5073581;28;20215;-55
2024/01/07 01:00:28;;;;;;;15.50;8.97;;;;;;;8.17;100.00;63797.00;5073562;28;20247;-63
2024/01/07 01:02:54;;;;;;;17.90;9.70;;;;;;;8.15;100.00;63794.81;5073787;28;20262;-55
2024/01/07 01:05:20;;;;;;;20.27;10.10;;;;;;;8.33;100.00;63809.47;5072355;28;20192;-54
2024/01/07 01:07:45;;;;;;;19.13;9.13;;;;;;;8.21;100.00;63799.41;5073821;28;20231;-56
2024/01/07 01:10:11;;;;;;;13.57;9.60;;;;;;;7.76;100.00;63747.78;5073785;28;20258;-54
2024/01/07 01:12:36;;;;;;;18.90;10.40;;;;;;;7.68;100.00;63739.03;5055384;28;20215;-58
2024/01/07 01:15:02;;;;;;;16.07;9.80;;;;;;;7.61;100.00;63731.41;5073377;28;20200;-53
2024/01/07 01:17:27;;;;;;;16.30;10.13;;;;;;;7.65;100.00;63736.31;5055113;28;20231;-54
2024/01/07 01:19:53;;;;;;;17.67;10.63;;;;;;;7.36;100.00;63707.19;5073093;28;20219;-53
2024/01/07 01:22:19;;;;;;;19.40;10.50;;;;;;;7.56;100.00;63729.00;5055052;28;20209;-54
2024/01/07 01:24:45;;;;;;;15.50;10.10;;;;;;;7.34;100.00;63705.00;5073075;28;20185;-54
2024/01/07 01:27:13;;;;;;;16.87;9.30;;;;;;;7.58;100.00;63728.69;5072810;28;20209;-55
2024/01/07 01:29:39;;;;;;;17.53;10.47;;;;;;;7.59;100.00;63732.25;5073185;28;20216;-54
2024/01/07 01:32:06;;;;;;;15.07;10.07;;;;;;;7.31;100.00;63701.19;5073335;28;20205;-56
2024/01/07 01:34:31;;;;;;;17.83;11.00;;;;;;;7.48;100.00;63720.28;5073097;28;20185;-56
2024/01/07 01:36:57;;;;;;;16.03;9.13;;;;;;;7.79;100.00;63753.56;5054677;28;20591;-56
2024/01/07 01:39:22;;;;;;;15.57;9.60;;;;;;;7.79;100.00;63750.50;5072884;28;20217;-53
2024/01/07 01:41:48;;;;;;;15.57;10.03;;;;;;;8.08;100.00;63780.19;5072757;28;20204;-53
2024/01/07 01:44:14;;;;;;;17.07;9.73;;;;;;;8.21;100.00;63801.38;5055129;28;20193;-55
2024/01/07 01:46:39;;;;;;;15.43;9.27;;;;;;;8.32;100.00;63813.41;5072543;28;20192;-56
2024/01/07 01:49:06;;;;;;;13.90;8.47;;;;;;;8.26;100.00;63804.88;5052967;28;20197;-55
2024/01/07 01:51:32;;;;;;;15.43;8.37;;;;;;;8.35;100.00;63814.72;5071281;28;20200;-57
2024/01/07 01:54:00;;;;;;;12.63;6.73;;;;;;;8.40;100.00;63817.66;5072717;28;20189;-56
2024/01/07 01:56:27;;;;;;;13.60;8.20;;;;;;;8.56;100.00;63839.06;5072614;28;20712;-58
2024/01/07 01:58:54;;;;;;;14.60;7.77;;;;;;;8.64;100.00;63840.28;5054618;28;20220;-55
2024/01/07 02:01:19;;;;;;;9.57;6.03;;;;;;;8.60;100.00;63841.47;5072675;28;20188;-56
2024/01/07 02:03:46;;;;;;;11.87;6.17;;;;;;;8.71;100.00;63850.97;5072410;28;20599;-55
2024/01/07 02:06:12;;;;;;;11.90;7.13;;;;;;;8.85;100.00;63868.78;5072570;28;20216;-54
2024/01/07 02:08:39;;;;;;;7.43;5.57;;;;;;;8.82;100.00;63863.00;5072014;28;20243;-55
2024/01/07 02:11:18;;;;;;;6.63;4.00;;;;;;;8.82;100.00;63862.44;5072804;28;20197;-56
2024/01/07 02:13:44;;;;;;;5.27;3.50;;;;;;;8.94;100.00;63873.59;5072128;28;20215;-56
2024/01/07 02:16:10;;;;;;;10.33;4.33;;;;;;;9.09;100.00;63895.00;5072273;28;20184;-55
2024/01/07 02:18:37;;;;;;;8.27;4.30;;;;;;;9.24;100.00;63910.88;5072222;28;20221;-53
2024/01/07 02:21:03;;;;;;;6.53;4.30;;;;;;;9.18;100.00;63902.34;5072313;28;20653;-53
2024/01/07 02:23:28;;;;;;;5.57;4.10;;;;;;;9.26;100.00;63908.03;5054179;28;20296;-55
2024/01/07 02:25:54;;;;;;;6.97;4.67;;;;;;;9.30;100.00;63917.44;5072414;28;20728;-57
2024/01/07 02:28:20;;;;;;;5.43;3.93;;;;;;;9.39;100.00;63926.72;5054136;28;20226;-53
2024/01/07 02:30:45;;;;;;;3.90;2.80;;;;;;;9.56;100.00;63945.28;5053980;28;20193;-55
2024/01/07 02:33:11;;;;;;;6.13;2.93;;;;;;;9.55;100.00;63942.25;5071977;28;20566;-55
2024/01/07 02:35:36;;;;;;;7.13;3.43;;;;;;;9.68;100.00;63958.97;5072138;28;20203;-54
2024/01/07 02:38:02;;;;;;;6.93;3.03;;;;;;;9.60;100.00;63947.72;5071965;28;20296;-54
2024/01/07 02:40:28;;;;;;;6.27;3.43;;;;;;;9.65;100.00;63953.19;5053929;28;20221;-56
2024/01/07 02:42:55;;;;;;;6.60;3.10;;;;;;;9.65;100.00;63955.16;5072032;28;20212;-56
2024/01/07 02:45:21;;;;;;;7.20;3.70;;;;;;;9.65;100.00;63955.69;5054417;28;20181;-55
2024/01/07 02:47:46;;;;;;;3.80;3.40;;;;;;;9.67;100.00;63954.81;5071907;28;20274;-55
2024/01/07 02:50:13;;;;;;;3.13;2.40;;;;;;;9.77;100.00;63968.28;5053913;28;20250;-55
2024/01/07 02:52:38;;;;;;;2.80;2.50;;;;;;;9.80;100.00;63972.09;5071802;28;20571;-59
2024/01/07 02:55:05;;;;;;;6.93;3.10;;;;;;;9.70;100.00;63958.66;5053744;28;20326;-55
2024/01/07 02:57:30;;;;;;;4.60;2.70;;;;;;;9.77;100.00;63968.28;5053769;28;20252;-54
2024/01/07 02:59:56;;;;;;;3.63;2.47;;;;;;;9.88;100.00;63980.84;5071661;28;20257;-54
2024/01/07 03:02:21;;;;;;;4.00;3.00;;;;;;;9.89;100.00;63978.88;5071928;28;20677;-54
2024/01/07 03:04:47;;;;;;;3.43;2.17;;;;;;;9.90;100.00;63983.03;5053584;28;20585;-53
2024/01/07 03:07:13;;;;;;;4.83;2.40;;;;;;;9.93;100.00;63985.78;5053524;28;20601;-54
2024/01/07 03:09:38;;;;;;;3.60;2.47;;;;;;;9.91;100.00;63984.13;5036960;28;20192;-54
2024/01/07 03:12:05;;;;;;;3.07;2.63;;;;;;;9.85;100.00;63975.06;5071638;28;20212;-53
2024/01/07 03:14:30;;;;;;;4.20;2.27;;;;;;;9.83;100.00;63969.81;5071541;28;20188;-54
2024/01/07 03:16:56;;;;;;;3.23;2.70;;;;;;;9.82;100.00;63971.22;5071334;28;20217;-53
2024/01/07 03:19:21;;;;;;;3.37;3.00;;;;;;;9.74;100.00;63964.97;5070445;28;20215;-57
2024/01/07 03:21:48;;;;;;;6.47;2.90;;;;;;;9.74;100.00;63963.00;5071460;28;20558;-55
2024/01/07 03:24:14;;;;;;;3.73;3.13;;;;;;;9.67;100.00;63954.81;5071331;28;20191;-55
2024/01/07 03:26:39;;;;;;;3.97;3.07;;;;;;;9.70;100.00;63960.59;5071406;28;20268;-54
2024/01/07 03:29:05;;;;;;;4.70;3.37;;;;;;;9.66;100.00;63954.28;5053216;28;20188;-54
2024/01/07 03:31:31;;;;;;;4.67;2.83;;;;;;;9.71;100.00;63959.75;5053115;28;20200;-57
2024/01/07 03:33:57;;;;;;;4.23;3.17;;;;;;;9.72;100.00;63963.34;5071008;28;20188;-55
2024/01/07 03:36:23;;;;;;;7.50;3.00;;;;;;;9.72;100.00;63963.34;5071060;28;20692;-53
2024/01/07 03:38:48;;;;;;;2.67;2.47;;;;;;;9.74;100.00;63963.00;5070893;28;20200;-54
2024/01/07 03:41:25;;;;;;;5.37;2.63;;;;;;;9.77;100.00;63968.28;5071061;28;20192;-54
2024/01/07 03:43:50;;;;;;;4.20;3.00;;;;;;;9.78;100.00;63967.38;5071154;28;20275;-54
2024/01/07 03:46:16;;;;;;;5.77;2.97;;;;;;;9.75;100.00;63963.56;5071005;28;20671;-54
2024/01/07 03:48:43;;;;;;;3.40;2.97;;;;;;;9.82;100.00;63971.78;5070755;28;20209;-54
2024/01/07 03:51:08;;;;;;;7.10;2.57;;;;;;;9.85;100.00;63974.50;5070868;28;20219;-54
2024/01/07 03:53:34;;;;;;;5.40;3.00;;;;;;;9.96;100.00;63987.09;5070745;28;20697;-54
2024/01/07 03:56:00;;;;;;;3.40;2.63;;;;;;;9.87;100.00;63977.25;5070791;28;20189;-54
2024/01/07 03:58:25;;;;;;;5.23;2.57;;;;;;;9.75;100.00;63964.13;5052681;28;20242;-53
2024/01/07 04:00:51;;;;;;;4.53;2.60;;;;;;;9.43;100.00;63926.06;5052597;28;20188;-55
2024/01/07 04:03:16;;;;;;;6.70;4.53;;;;;;;9.39;100.00;63921.69;5070680;28;20686;-55
2024/01/07 04:05:42;;;;;;;12.07;6.60;;;;;;;9.07;100.00;63887.28;5070550;28;20568;-59
2024/01/07 04:08:11;;;;;;;10.03;6.30;;;;;;;8.86;100.00;63869.88;5070557;28;20200;-55
2024/01/07 04:10:37;;;;;;;12.43;7.73;;;;;;;8.96;100.00;63880.81;5070669;28;20185;-55
2024/01/07 04:13:04;;;;;;;15.60;8.37;;;;;;;8.80;100.00;63860.81;5070776;28;20212;-54
2024/01/07 04:15:30;;;;;;;11.70;7.73;;;;;;;8.88;100.00;63871.53;5052603;28;20191;-55
2024/01/07 04:17:56;;;;;;;10.23;7.13;;;;;;;9.05;100.00;63888.13;5070777;28;20212;-55
2024/01/07 04:20:22;;;;;;;13.70;7.57;;;;;;;9.20;100.00;63903.97;5070523;28;20204;-54
2024/01/07 04:22:48;;;;;;;11.23;6.97;;;;;;;9.07;100.00;63892.28;5070330;28;20213;-53
2024/01/07 04:25:13;;;;;;;12.23;7.07;;;;;;;9.04;100.00;63889.56;5070442;28;20193;-55
2024/01/07 04:27:39;;;;;;;9.63;6.53;;;;;;;9.05;100.00;63890.63;5052676;28;20212;-53
2024/01/07 04:30:06;;;;;;;11.47;6.53;;;;;;;8.79;100.00;63856.66;5070978;28;20776;-55
2024/01/07 04:32:32;;;;;;;9.97;5.97;;;;;;;8.42;100.00;63817.34;5073902;28;20208;-56
2024/01/07 04:34:57;;;;;;;8.03;5.87;;;;;;;8.00;100.00;63775.94;5073858;28;20185;-55
2024/01/07 04:37:24;;;;;;;12.20;6.57;;;;;;;8.06;100.00;63783.03;5074242;28;20233;-55
2024/01/07 04:39:49;;;;;;;12.17;6.50;;;;;;;7.88;100.00;63760.34;5073665;28;20291;-56
2024/01/07 04:42:16;;;;;;;11.83;6.43;;;;;;;7.63;100.00;63736.63;5073858;28;20351;-55
2024/01/07 04:44:42;;;;;;;9.40;6.50;;;;;;;7.65;100.00;63738.28;5055778;28;20192;-55
2024/01/07 04:47:30;;;;;;;9.93;6.27;;;;;;;7.63;100.00;63736.63;5073633;28;20205;-56
2024/01/07 04:49:56;;;;;;;11.53;6.73;;;;;;;7.71;100.00;63744.81;5073636;28;20292;-55
2024/01/07 04:52:22;;;;;;;11.30;6.40;;;;;;;8.07;100.00;63781.63;5073929;28;20249;-56
2024/01/07 04:54:50;;;;;;;7.97;5.73;;;;;;;8.27;100.00;63808.50;5073366;28;20223;-55
2024/01/07 04:57:15;;;;;;;8.20;5.83;;;;;;;8.51;100.00;63826.06;5055563;28;20258;-55
2024/01/07 04:59:41;;;;;;;8.17;5.80;;;;;;;8.34;100.00;63813.63;5073385;28;20240;-58
2024/01/07 05:02:06;;;;;;;10.93;6.20;;;;;;;7.92;100.00;63767.22;5073745;28;20274;-53
2024/01/07 05:04:32;;;;;;;11.83;5.83;;;;;;;7.73;100.00;63743.94;5073664;28;20185;-53
2024/01/07 05:06:57;;;;;;;9.13;5.60;;;;;;;7.74;100.00;63748.09;5073434;28;20714;-58
2024/01/07 05:09:23;;;;;;;8.90;5.40;;;;;;;7.79;100.00;63751.06;5073582;28;20185;-54
2024/01/07 05:11:48;;;;;;;10.23;7.00;;;;;;;8.30;100.00;63809.25;5055382;28;20219;-59
2024/01/07 05:14:14;;;;;;;9.40;5.87;;;;;;;8.06;100.00;63777.47;5073341;28;20276;-54
2024/01/07 05:16:39;;;;;;;8.50;6.23;;;;;;;8.14;100.00;63791.22;5073509;28;20266;-57
2024/01/07 05:19:05;;;;;;;10.50;6.50;;;;;;;8.24;100.00;63802.69;5073288;28;20227;-55
2024/01/07 05:21:31;;;;;;;14.20;7.63;;;;;;;8.15;100.00;63790.34;5073557;28;20188;-54
2024/01/07 05:23:56;;;;;;;12.60;7.33;;;;;;;7.54;100.00;63726.25;5055409;28;20197;-54
2024/01/07 05:26:22;;;;;;;9.80;7.63;;;;;;;7.77;100.00;63750.81;5073076;28;20200;-57
2024/01/07 05:28:48;;;;;;;9.20;7.20;;;;;;;8.22;100.00;63800.50;5055090;28;20196;-57
2024/01/07 05:31:17;;;;;;;11.13;7.80;;;;;;;8.13;100.00;63787.63;5038832;28;20655;-54
2024/01/07 05:33:44;;;;;;;9.97;7.20;;;;;;;8.27;100.00;63803.47;5072848;28;20211;-54
2024/01/07 05:36:10;;;;;;;12.07;6.73;;;;;;;8.24;100.00;63800.16;5073357;28;20268;-55
2024/01/07 05:38:36;;;;;;;10.60;7.70;;;;;;;8.24;100.00;63800.16;5054942;28;20748;-56
2024/01/07 05:41:02;;;;;;;12.33;7.13;;;;;;;8.28;100.00;63806.53;5073132;28;20201;-54
2024/01/07 05:43:27;;;;;;;10.10;6.80;;;;;;;8.43;100.00;63823.47;5072077;28;20311;-54
2024/01/07 05:45:53;;;;;;;10.30;6.97;;;;;;;8.15;100.00;63792.84;5055015;28;20189;-53
2024/01/07 05:48:22;;;;;;;16.70;7.90;;;;;;;8.58;100.00;63838.75;5073146;28;20288;-54
2024/01/07 05:50:47;;;;;;;13.57;9.00;;;;;;;8.47;100.00;63824.75;5072814;28;20665;-55
2024/01/07 05:53:13;;;;;;;14.93;8.93;;;;;;;8.35;100.00;63811.66;5054827;28;20209;-57
2024/01/07 05:55:39;;;;;;;12.40;7.50;;;;;;;8.14;100.00;63788.72;5072696;28;20191;-56
2024/01/07 05:58:05;;;;;;;11.60;8.20;;;;;;;8.09;100.00;63786.31;5054792;28;20644;-56
2024/01/07 06:00:30;;;;;;;13.97;7.63;;;;;;;7.98;100.00;63771.25;5072701;28;20212;-55
2024/01/07 06:02:57;;;;;;;11.93;7.50;;;;;;;8.03;100.00;63777.25;5054741;28;20219;-56
2024/01/07 06:05:23;;;;;;;10.80;7.53;;;;;;;8.09;100.00;63786.31;5072668;28;20188;-54
2024/01/07 06:07:49;;;;;;;13.13;8.07;;;;;;;8.10;100.00;63786.84;5072301;28;20353;-53
2024/01/07 06:10:14;;;;;;;11.30;7.80;;;;;;;8.23;100.00;63803.56;5072406;28;20566;-54
2024/01/07 06:12:40;;;;;;;11.23;7.73;;;;;;;8.19;100.00;63794.72;5069120;22;20223;-54
2024/01/07 06:15:06;;;;;;;12.60;7.47;;;;;;;7.96;100.00;63769.06;5054218;28;20361;-55
2024/01/07 06:17:32;;;;;;;8.97;5.73;;;;;;;8.16;100.00;63793.41;5072132;28;20296;-55
2024/01/07 06:19:57;;;;;;;12.40;7.13;;;;;;;8.48;100.00;63827.81;5072382;28;20308;-54
2024/01/07 06:22:23;;;;;;;9.50;6.80;;;;;;;8.39;100.00;63816.56;5072440;28;20209;-54
2024/01/07 06:24:48;;;;;;;11.80;7.10;;;;;;;8.28;100.00;63807.06;5072219;28;20544;-52
2024/01/07 06:27:14;;;;;;;11.43;7.80;;;;;;;8.44;100.00;63827.06;5072025;28;20254;-53
2024/01/07 06:29:39;;;;;;;12.03;8.07;;;;;;;8.26;100.00;63804.88;5072260;28;20205;-54
2024/01/07 06:32:05;;;;;;;11.67;8.73;;;;;;;7.72;100.00;63745.91;5072000;28;20216;-54
2024/01/07 06:34:33;;;;;;;14.20;8.70;;;;;;;7.80;100.00;63754.13;5054313;28;20201;-53
2024/01/07 06:36:59;;;;;;;12.20;8.30;;;;;;;8.29;100.00;63808.16;5072023;28;20265;-56
2024/01/07 06:39:26;;;;;;;14.43;8.03;;;;;;;8.22;100.00;63799.97;5072039;28;20213;-55
2024/01/07 06:41:52;;;;;;;12.67;8.03;;;;;;;8.46;100.00;63821.69;5071769;28;20232;-57
2024/01/07 06:44:18;;;;;;;15.03;8.60;;;;;;;8.71;100.00;63852.94;5071909;28;20209;-54
2024/01/07 06:46:44;;;;;;;10.50;7.80;;;;;;;8.78;100.00;63860.59;5071657;28;20553;-54
2024/01/07 06:49:10;;;;;;;11.53;8.23;;;;;;;8.66;100.00;63848.03;5053810;28;20258;-55
2024/01/07 06:51:37;;;;;;;11.97;8.17;;;;;;;8.74;100.00;63853.72;5071720;28;20189;-56
2024/01/07 06:54:03;;;;;;;10.27;7.23;;;;;;;8.96;100.00;63880.81;5037226;28;20309;-54
2024/01/07 06:56:28;;;;;;;10.97;7.10;;;;;;;9.19;100.00;63905.94;5072087;28;20687;-54
2024/01/07 06:58:54;;;;;;;9.57;8.23;;;;;;;9.14;100.00;63897.41;5071565;28;20213;-55
2024/01/07 07:01:21;;;;;;;10.17;7.57;;;;;;;9.09;100.00;63892.50;5053656;28;20193;-55
2024/01/07 07:03:47;;;;;;;11.10;8.17;;;;;;;9.56;100.00;63945.84;5071580;28;20299;-54
2024/01/07 07:06:12;;;;;;;12.30;8.20;;;;;;;9.45;100.00;63933.84;5053548;28;20338;-55
2024/01/07 07:08:38;;;;;;;15.47;10.17;;;;;;;9.30;100.00;63914.91;5072263;28;20213;-56
2024/01/07 07:11:04;;;;;;;17.20;10.60;;;;;;;9.35;100.00;63919.84;5071413;28;20323;-54
2024/01/07 07:13:30;;;;;;;20.83;12.27;;;;;;;9.35;100.00;63922.91;5053495;28;20219;-55
2024/01/07 07:15:55;;;;;;;11.67;8.27;;;;;;;9.56;100.00;63945.28;5071421;28;20200;-56
2024/01/07 07:18:21;;;;;;;11.63;7.70;;;;;;;9.73;100.00;63961.94;5071644;28;20259;-55
2024/01/07 07:20:47;;;;;;;11.83;8.17;;;;;;;9.54;100.00;63938.63;5053316;28;20685;-60
2024/01/07 07:23:13;;;;;;;11.77;8.43;;;;;;;9.32;100.00;63920.16;5071354;28;20284;-54
2024/01/07 07:25:39;;;;;;;13.20;8.67;;;;;;;9.30;100.00;63917.44;5071123;28;20211;-55
2024/01/07 07:28:05;;;;;;;11.57;7.30;;;;;;;9.09;100.00;63894.47;5071058;28;20208;-53
2024/01/07 07:30:30;;;;;;;14.97;6.93;;;;;;;9.15;100.00;63901.03;5053228;28;20207;-54
2024/01/07 07:32:56;;;;;;;7.20;5.73;;;;;;;9.38;100.00;63926.16;5053357;28;20205;-55
2024/01/07 07:35:22;;;;;;;9.07;5.73;;;;;;;9.54;100.00;63941.16;5071175;28;20635;-55
2024/01/07 07:37:47;;;;;;;10.70;5.53;;;;;;;9.42;100.00;63928.03;5071368;28;20232;-54
2024/01/07 07:40:13;;;;;;;8.07;5.03;;;;;;;9.24;100.00;63910.88;5071057;28;20220;-55
2024/01/07 07:42:39;;;;;;;7.87;4.20;;;;;;;9.40;100.00;63925.84;5071245;28;20196;-57
2024/01/07 07:45:05;;;;;;;8.40;5.90;;;;;;;9.54;100.00;63943.66;5071040;28;20663;-54
2024/01/07 07:47:32;;;;;;;6.73;5.47;;;;;;;9.59;100.00;63949.13;5078097;22;20739;-54
2024/01/07 07:49:57;;;;;;;8.43;5.53;;;;;;;9.91;100.00;63981.63;5071121;28;20181;-54
2024/01/07 07:52:25;;;;;;;8.37;5.03;;;;;;;9.99;100.00;63992.34;5070950;28;20223;-55
2024/01/07 07:54:54;;;;;;;8.53;5.10;;;;;;;9.85;100.00;63975.06;5070821;28;20230;-54
2024/01/07 07:57:25;;;;;;;9.73;6.97;;;;;;;9.87;100.00;63979.75;5070884;28;20220;-55
2024/01/07 07:59:50;;;;;;;6.37;5.13;;;;;;;10.02;100.00;63996.16;5052758;28;20240;-54
2024/01/07 08:02:16;;;;;;;8.67;5.40;;;;;;;10.05;100.00;63996.94;5070744;28;20236;-54
2024/01/07 08:04:42;;;;;;;7.97;5.43;;;;;;;10.20;100.00;64012.28;5053510;28;20190;-54
2024/01/07 08:07:14;;;;;;;7.37;5.23;;;;;;;10.23;100.00;64018.63;5077445;28;20211;-54
2024/01/07 08:09:40;;;;;;;8.83;5.70;;;;;;;10.21;100.00;64013.91;5077347;28;20692;-55
2024/01/07 08:12:06;;;;;;;8.57;5.70;;;;;;;10.33;100.00;64029.56;5059260;28;20212;-56
2024/01/07 08:14:32;;;;;;;7.43;5.77;;;;;;;10.33;100.00;64026.47;5077277;28;20571;-56
2024/01/07 08:16:58;;;;;;;10.27;5.27;;;;;;;10.44;100.00;64038.53;5077138;28;20211;-54
2024/01/07 08:19:23;;;;;;;9.83;6.53;;;;;;;10.67;100.00;64068.75;5077207;28;20208;-54
2024/01/07 08:21:49;;;;;;;9.13;6.47;;;;;;;10.63;100.00;64059.31;5077441;28;20205;-55
2024/01/07 08:24:14;;;;;;;12.33;7.03;;;;;;;10.38;100.00;64029.44;5077132;28;20199;-54
2024/01/07 08:26:40;;;;;;;11.03;6.17;;;;;;;10.57;100.00;64052.75;5077347;28;20199;-54
2024/01/07 08:29:07;;;;;;;7.53;6.40;;;;;;;10.52;100.00;64049.81;5059199;28;20192;-54
2024/01/07 08:31:33;;;;;;;9.73;6.47;;;;;;;10.28;100.00;64021.56;5077320;28;20192;-55
2024/01/07 08:33:59;;;;;;;11.93;6.80;;;;;;;10.29;100.00;64025.19;5058973;28;20250;-57
2024/01/07 08:36:25;;;;;;;11.23;6.77;;;;;;;10.35;100.00;64028.69;5076778;28;20193;-53
2024/01/07 08:38:50;;;;;;;8.37;5.40;;;;;;;10.32;100.00;64022.88;5076836;28;20212;-54
2024/01/07 08:41:16;;;;;;;7.73;5.73;;;;;;;10.40;100.00;64034.72;5077331;28;20271;-53
2024/01/07 08:43:42;;;;;;;9.43;6.47;;;;;;;10.52;100.00;64047.28;5076981;28;20580;-54
2024/01/07 08:46:07;;;;;;;10.40;7.57;;;;;;;10.67;100.00;64063.69;5077255;28;20196;-54
2024/01/07 08:48:33;;;;;;;11.50;7.03;;;;;;;10.65;100.00;64059.00;5076758;28;20216;-59
2024/01/07 08:50:59;;;;;;;15.90;8.17;;;;;;;10.69;100.00;64066.44;5076897;28;20236;-55
2024/01/07 08:53:24;;;;;;;13.27;8.57;;;;;;;10.68;100.00;64067.31;5076625;28;20216;-54
2024/01/07 08:55:50;;;;;;;9.83;7.73;;;;;;;10.72;100.00;64069.19;5076810;28;20192;-55
2024/01/07 08:58:17;;;;;;;12.03;8.30;;;;;;;10.76;100.00;64074.13;5076902;28;20228;-55
2024/01/07 09:00:43;;;;;;;12.00;8.83;;;;;;;10.91;100.00;64089.97;5076477;28;20220;-55
2024/01/07 09:03:10;;;;;;;12.87;7.90;;;;;;;11.05;100.00;64107.81;5076317;28;20752;-54
2024/01/07 09:05:36;;;;;;;14.20;9.27;;;;;;;11.17;100.00;64117.91;5076867;28;20196;-57
2024/01/07 09:08:01;;;;;;;14.47;9.27;;;;;;;11.22;100.00;64123.38;5076582;28;20212;-55
2024/01/07 09:10:27;;;;;;;14.07;8.83;;;;;;;10.94;100.00;64091.28;5058634;28;20335;-54
2024/01/07 09:12:53;;;;;;;13.77;9.00;;;;;;;11.08;100.00;64111.13;5041855;28;20217;-56
2024/01/07 09:15:20;;;;;;;10.77;8.97;;;;;;;11.37;100.00;64137.28;5076765;28;20212;-55
2024/01/07 09:17:46;;;;;;;12.70;9.73;;;;;;;11.40;100.00;64146.16;5072526;28;20213;-58
2024/01/07 09:20:13;;;;;;;12.70;8.97;;;;;;;11.52;100.00;64159.31;5073055;28;20216;-54
2024/01/07 09:22:38;;;;;;;14.87;9.63;;;;;;;11.47;100.00;64151.31;5073115;28;20240;-54
2024/01/07 09:25:06;;;;;;;14.40;9.70;;;;;;;10.94;100.00;64091.28;5073119;28;20224;-55
2024/01/07 09:27:32;;;;;;;12.57;8.70;;;;;;;11.18;100.00;64121.50;5072962;28;20285;-55
2024/01/07 09:29:58;;;;;;;16.50;10.13;;;;;;;11.26;100.00;64127.75;5073216;28;20642;-54
2024/01/07 09:32:24;;;;;;;14.13;9.10;;;;;;;11.09;100.00;64112.19;5072980;28;20594;-56
2024/01/07 09:34:49;;;;;;;13.00;8.57;;;;;;;11.10;100.00;64110.78;5072937;28;20177;-56
2024/01/07 09:37:16;;;;;;;11.20;7.73;;;;;;;11.50;100.00;64154.59;5055109;28;20672;-56
2024/01/07 09:39:42;;;;;;;9.73;7.20;;;;;;;11.80;100.00;64190.00;5054937;28;20205;-55
2024/01/07 09:42:18;;;;;;;10.13;6.83;;;;;;;11.78;100.00;64187.81;5072778;28;20239;-53
2024/01/07 09:44:44;;;;;;;11.17;5.80;;;;;;;11.73;100.00;64179.84;5080257;22;20316;-54
2024/01/07 09:47:11;;;;;;;8.20;5.27;;;;;;;11.91;100.00;64199.00;5072710;28;20247;-53
2024/01/07 09:49:38;;;;;;;4.77;4.30;;;;;;;12.00;100.00;64208.31;5072701;28;20250;-53
2024/01/07 09:52:05;;;;;;;7.17;4.50;;;;;;;12.02;100.00;64213.56;5071393;28;20754;-55
2024/01/07 09:54:31;;;;;;;7.40;4.17;;;;;;;12.11;100.00;64222.91;5070969;28;20212;-56
2024/01/07 09:57:07;;;;;;;3.87;3.17;;;;;;;12.37;100.00;64249.44;5072566;28;20706;-55
2024/01/07 09:59:33;;;;;;;5.43;3.63;;;;;;;12.35;100.00;64246.69;5054622;28;20218;-55
2024/01/07 10:01:59;;;;;;;4.43;3.40;;;;;;;12.43;100.00;64255.47;5072602;28;20652;-57
2024/01/07 10:04:27;;;;;;;4.00;3.60;;;;;;;12.54;100.00;64265.00;5072613;28;20181;-55
2024/01/07 10:06:54;;;;;;;5.80;3.83;;;;;;;12.76;100.00;64291.09;5072399;28;20736;-55
2024/01/07 10:09:21;;;;;;;6.03;3.50;;;;;;;12.66;100.00;64278.16;5072509;28;20196;-56
2024/01/07 10:11:47;;;;;;;5.60;3.20;;;;;;;12.70;100.00;64285.06;5072343;28;20224;-53
2024/01/07 10:14:13;;;;;;;6.10;3.40;;;;;;;12.84;100.00;64299.88;5072342;28;20212;-58
2024/01/07 10:16:39;;;;;;;5.47;3.60;;;;;;;12.90;100.00;64304.50;5072196;28;20180;-58
2024/01/07 10:19:05;;;;;;;7.30;4.40;;;;;;;13.44;100.00;64363.22;5072632;28;20587;-56
2024/01/07 10:21:31;;;;;;;5.53;3.90;;;;;;;13.77;99.41;64404.50;5072054;28;20191;-58
2024/01/07 10:24:13;;;;;;;5.80;3.47;;;;;;;13.99;99.02;64423.06;5072258;28;20591;-55
2024/01/07 10:26:40;;;;;;;9.60;3.92;;;;;;;14.20;95.24;64446.66;5054097;28;20335;-54
2024/01/07 10:29:06;;;;;;;6.13;3.97;;;;;;;13.85;97.44;64410.75;5072002;28;20196;-57
2024/01/07 10:31:32;;;;;;;6.43;4.15;;;;;;;13.80;97.21;64402.19;5072044;28;20201;-55
2024/01/07 10:33:58;;;;;;;6.85;4.13;;;;;;;13.76;96.52;64400.31;5072098;28;20188;-56
2024/01/07 10:36:26;;;;;;;6.57;4.40;;;;;;;13.77;97.93;64401.44;5072463;28;20573;-57
2024/01/07 10:38:54;;;;;;;10.30;5.97;;;;;;;14.19;98.30;64450.09;5071887;28;20207;-54
2024/01/07 10:41:20;;;;;;;9.63;5.65;;;;;;;14.48;94.87;64479.44;5071995;28;20275;-53
2024/01/07 10:43:49;;;;;;;6.73;5.87;;;;;;;13.71;98.82;64395.41;5082350;22;20316;-64
2024/01/07 10:46:15;;;;;;;15.35;5.95;;;;;;;14.49;94.61;64478.00;5071930;28;20181;-54
2024/01/07 10:48:48;;;;;;;8.27;5.60;;;;;;;14.94;91.22;64529.44;5072006;28;20263;-53
2024/01/07 10:51:14;;;;;;;7.97;5.03;;;;;;;14.21;93.77;64450.31;5072091;28;20254;-56
2024/01/07 10:53:43;;;;;;;7.95;4.68;;;;;;;14.23;94.01;64449.41;5071724;28;20197;-56
2024/01/07 10:56:12;;;;;;;7.35;3.97;;;;;;;14.15;94.14;64443.72;5071932;28;20199;-55
2024/01/07 10:58:40;;;;;;;8.70;4.03;;;;;;;14.17;92.70;64443.38;5071704;28;20204;-55
2024/01/07 11:01:07;;;;;;;7.38;3.60;;;;;;;14.45;88.34;64475.59;5053842;28;20271;-54
2024/01/07 11:03:51;;;;;;;5.75;3.92;;;;;;;14.09;90.04;64439.09;5071841;28;20197;-55
2024/01/07 11:06:27;;;;;;;8.68;3.40;;;;;;;14.10;91.17;64435.13;5071680;28;20276;-56
2024/01/07 11:08:59;;;;;;;6.35;3.33;;;;;;;14.07;91.34;64434.94;5071516;28;20188;-55
2024/01/07 11:11:37;;;;;;;6.85;3.88;;;;;;;13.67;91.08;64390.44;5071774;28;20195;-62
2024/01/07 11:14:02;;;;;;;5.18;3.45;;;;;;;13.94;91.81;64417.56;5053582;28;20188;-55
2024/01/07 11:16:44;;;;;;;9.02;3.90;;;;;;;13.94;92.78;64422.63;5071651;28;20192;-56
2024/01/07 11:19:12;;;;;;;5.13;3.30;;;;;;;13.61;92.99;64383.88;5071359;28;20216;-54
2024/01/07 11:21:38;;;;;;;9.48;3.55;;;;;;;13.46;94.63;64365.97;5071583;28;20181;-56
2024/01/07 11:24:04;;;;;;;6.80;3.43;;;;;;;13.40;95.61;64363.88;5053610;28;20262;-57